createdAt,value
2022-12-19T00:00:18.126Z,19.27
2022-12-19T00:03:03.340Z,20.63
2022-12-19T00:05:49.351Z,20.33
2022-12-19T00:08:34.999Z,21.38
2022-12-19T00:11:22.674Z,19.90
2022-12-19T00:14:11.398Z,20.10
2022-12-19T00:16:56.814Z,20.38
2022-12-19T00:19:42.051Z,19.70
2022-12-19T00:22:27.448Z,19.50
2022-12-19T00:25:12.808Z,18.13
2022-12-19T00:27:58.260Z,18.25
2022-12-19T00:30:43.844Z,16.88
2022-12-19T00:33:29.731Z,18.25
2022-12-19T00:36:21.792Z,17.95
2022-12-19T00:39:10.209Z,17.48
2022-12-19T00:41:55.557Z,17.52
2022-12-19T00:44:41.209Z,18.00
2022-12-19T00:47:26.699Z,17.83
2022-12-19T00:50:11.920Z,17.90
2022-12-19T00:52:57.178Z,17.52
2022-12-19T00:55:42.655Z,18.73
2022-12-19T00:58:28.163Z,18.40
2022-12-19T01:01:20.199Z,18.73
2022-12-19T01:07:13.154Z,17.08
2022-12-19T01:09:58.213Z,17.95
2022-12-19T01:12:46.539Z,18.65
2022-12-19T01:15:32.125Z,17.43
2022-12-19T01:18:17.568Z,17.33
2022-12-19T01:21:08.254Z,17.85
2022-12-19T01:23:53.566Z,18.27
2022-12-19T01:26:38.503Z,18.20
2022-12-19T01:29:25.461Z,17.33
2022-12-19T01:32:10.910Z,17.35
2022-12-19T01:34:56.334Z,16.60
2022-12-19T01:37:41.625Z,16.73
2022-12-19T01:40:27.075Z,17.42
2022-12-19T01:43:14.059Z,16.25
2022-12-19T01:46:06.056Z,17.08
2022-12-19T01:48:51.281Z,17.38
2022-12-19T01:51:44.296Z,18.00
2022-12-19T01:54:38.554Z,17.42
2022-12-19T01:57:23.724Z,17.15
2022-12-19T02:00:09.964Z,17.45
2022-12-19T02:03:06.459Z,13.73
2022-12-19T02:05:55.126Z,17.13
2022-12-19T02:08:43.065Z,17.25
2022-12-19T02:11:28.309Z,17.58
2022-12-19T02:14:13.763Z,17.98
2022-12-19T02:17:17.149Z,17.73
2022-12-19T02:20:22.058Z,16.23
2022-12-19T02:23:46.271Z,18.73
2022-12-19T02:27:06.864Z,17.25
2022-12-19T02:29:59.517Z,16.02
2022-12-19T02:32:50.907Z,17.50
2022-12-19T02:36:02.482Z,16.05
2022-12-19T02:38:58.685Z,16.60
2022-12-19T02:41:52.778Z,16.02
2022-12-19T02:44:45.935Z,17.83
2022-12-19T02:47:32.650Z,18.25
2022-12-19T02:50:19.762Z,17.23
2022-12-19T02:53:05.142Z,17.88
2022-12-19T02:56:20.839Z,16.48
2022-12-19T02:59:21.401Z,18.80
2022-12-19T03:02:19.393Z,18.20
2022-12-19T03:05:33.726Z,17.92
2022-12-19T03:08:26.135Z,18.48
2022-12-19T03:11:14.779Z,18.98
2022-12-19T03:14:19.039Z,18.17
2022-12-19T03:17:08.749Z,17.90
2022-12-19T03:19:54.051Z,17.92
2022-12-19T03:22:39.263Z,19.48
2022-12-19T03:25:25.995Z,18.80
2022-12-19T03:28:15.981Z,19.30
2022-12-19T03:31:33.167Z,19.33
2022-12-19T03:34:24.883Z,20.45
2022-12-19T03:37:15.186Z,19.20
2022-12-19T03:40:05.605Z,19.42
2022-12-19T03:43:08.880Z,18.65
2022-12-19T03:46:04.306Z,21.00
2022-12-19T03:48:54.511Z,20.05
2022-12-19T03:51:59.104Z,19.02
2022-12-19T03:54:54.683Z,19.38
2022-12-19T03:58:02.042Z,20.58
2022-12-19T04:00:49.206Z,20.30
2022-12-19T04:03:34.587Z,20.98
2022-12-19T04:06:20.348Z,18.77
2022-12-19T04:09:06.228Z,20.27
2022-12-19T04:11:58.536Z,20.35
2022-12-19T04:14:44.348Z,21.15
2022-12-19T04:17:53.270Z,21.48
2022-12-19T04:20:44.087Z,20.77
2022-12-19T04:23:37.257Z,21.85
2022-12-19T04:26:24.353Z,20.70
2022-12-19T04:29:13.116Z,20.35
2022-12-19T04:31:59.099Z,20.55
2022-12-19T04:34:44.297Z,19.65
2022-12-19T04:37:31.124Z,20.48
2022-12-19T04:40:16.994Z,22.00
2022-12-19T04:43:02.358Z,19.85
2022-12-19T04:45:50.549Z,20.73
2022-12-19T04:48:39.305Z,21.58
2022-12-19T04:51:24.590Z,20.92
2022-12-19T04:54:09.629Z,21.00
2022-12-19T04:56:55.015Z,23.70
2022-12-19T04:59:40.216Z,21.65
2022-12-19T05:02:25.946Z,22.75
2022-12-19T05:05:11.522Z,21.15
2022-12-19T05:07:58.260Z,20.63
2022-12-19T05:10:43.895Z,21.52
2022-12-19T05:13:30.206Z,21.15
2022-12-19T05:16:16.088Z,21.55
2022-12-19T05:19:01.666Z,20.90
2022-12-19T05:21:46.777Z,23.63
2022-12-19T05:24:32.057Z,21.80
2022-12-19T05:27:17.908Z,22.23
2022-12-19T05:30:04.013Z,20.38
2022-12-19T05:32:49.160Z,22.58
2022-12-19T05:35:35.372Z,21.80
2022-12-19T05:38:20.670Z,21.38
2022-12-19T05:41:30.086Z,21.15
2022-12-19T05:44:15.290Z,21.15
2022-12-19T05:47:00.562Z,22.77
2022-12-19T05:49:45.724Z,22.10
2022-12-19T05:52:31.404Z,21.55
2022-12-19T05:55:17.610Z,22.20
2022-12-19T05:58:03.160Z,21.20
2022-12-19T06:00:48.468Z,21.13
2022-12-19T06:03:34.142Z,21.38
2022-12-19T06:06:21.914Z,21.73
2022-12-19T06:09:07.094Z,20.30
2022-12-19T06:11:52.832Z,21.52
2022-12-19T06:14:38.028Z,20.92
2022-12-19T06:17:23.367Z,21.08
2022-12-19T06:20:09.350Z,21.35
2022-12-19T06:22:54.372Z,20.77
2022-12-19T06:25:39.863Z,21.10
2022-12-19T06:28:27.129Z,20.50
2022-12-19T06:31:13.284Z,20.42
2022-12-19T06:33:58.539Z,21.50
2022-12-19T06:36:43.803Z,21.05
2022-12-19T06:39:29.128Z,20.67
2022-12-19T06:42:23.160Z,20.48
2022-12-19T06:45:09.088Z,20.30
2022-12-19T06:47:55.689Z,20.23
2022-12-19T06:50:41.363Z,20.88
2022-12-19T06:53:27.023Z,20.25
2022-12-19T06:56:15.387Z,21.08
2022-12-19T06:59:00.643Z,20.60
2022-12-19T07:02:00.660Z,20.35
2022-12-19T07:04:48.956Z,20.45
2022-12-19T07:07:34.336Z,20.02
2022-12-19T07:10:19.619Z,21.02
2022-12-19T07:13:05.441Z,21.02
2022-12-19T07:15:53.586Z,21.55
2022-12-19T07:18:40.837Z,20.55
2022-12-19T07:21:26.320Z,20.17
2022-12-19T07:24:14.821Z,18.67
2022-12-19T07:27:00.318Z,20.10
2022-12-19T07:29:45.558Z,20.90
2022-12-19T07:32:30.650Z,20.00
2022-12-19T07:35:16.633Z,20.00
2022-12-19T07:38:03.764Z,18.65
2022-12-19T07:40:49.024Z,19.77
2022-12-19T07:43:34.477Z,19.15
2022-12-19T07:46:20.099Z,18.92
2022-12-19T07:49:05.309Z,17.83
2022-12-19T07:51:50.847Z,19.20
2022-12-19T07:54:36.061Z,20.15
2022-12-19T07:57:21.245Z,18.92
2022-12-19T08:00:06.827Z,19.73
2022-12-19T08:03:01.244Z,18.95
2022-12-19T08:05:46.360Z,19.98
2022-12-19T08:08:32.699Z,19.45
2022-12-19T08:11:27.188Z,18.67
2022-12-19T08:14:12.328Z,18.55
2022-12-19T08:20:03.333Z,20.17
2022-12-19T08:22:49.089Z,18.73
2022-12-19T08:25:35.001Z,19.38
2022-12-19T08:28:20.265Z,19.02
2022-12-19T08:31:10.926Z,19.95
2022-12-19T08:33:57.555Z,19.05
2022-12-19T08:36:42.749Z,17.92
2022-12-19T08:39:28.163Z,18.98
2022-12-19T08:42:13.874Z,17.08
2022-12-19T08:44:59.182Z,17.58
2022-12-19T08:47:45.321Z,19.15
2022-12-19T08:50:31.585Z,18.20
2022-12-19T08:53:22.711Z,17.38
2022-12-19T08:56:17.548Z,18.92
2022-12-19T08:59:02.805Z,18.13
2022-12-19T09:01:48.247Z,18.40
2022-12-19T09:06:03.726Z,18.25
2022-12-19T09:07:39.659Z,17.10
2022-12-19T09:10:25.179Z,19.30
2022-12-19T09:13:10.385Z,17.38
2022-12-19T09:16:03.281Z,17.65
2022-12-19T09:18:50.964Z,19.27
2022-12-19T09:21:36.356Z,17.80
2022-12-19T09:24:21.868Z,18.90
2022-12-19T09:27:07.196Z,19.77
2022-12-19T09:29:52.260Z,17.60
2022-12-19T09:32:37.692Z,19.30
2022-12-19T09:35:28.464Z,17.92
2022-12-19T09:38:15.280Z,17.58
2022-12-19T09:41:00.693Z,18.00
2022-12-19T09:44:01.367Z,17.65
2022-12-19T09:46:54.811Z,18.10
2022-12-19T09:49:45.930Z,18.80
2022-12-19T09:52:41.149Z,18.30
2022-12-19T09:55:32.637Z,17.63
2022-12-19T09:58:23.827Z,18.17
2022-12-19T10:01:36.186Z,17.70
2022-12-19T10:04:25.042Z,17.70
2022-12-19T10:07:33.167Z,16.73
2022-12-19T10:12:34.597Z,18.00
2022-12-19T10:13:58.216Z,17.85
2022-12-19T10:17:08.911Z,15.90
2022-12-19T10:20:14.989Z,17.70
2022-12-19T10:23:55.765Z,17.52
2022-12-19T10:26:46.655Z,17.67
2022-12-19T10:29:41.167Z,17.00
2022-12-19T10:32:49.878Z,16.40
2022-12-19T10:35:42.297Z,17.90
2022-12-19T10:38:35.845Z,16.10
2022-12-19T10:41:32.266Z,17.05
2022-12-19T10:44:19.086Z,16.20
2022-12-19T10:47:04.782Z,17.10
2022-12-19T10:49:50.083Z,16.35
2022-12-19T10:52:52.348Z,16.60
2022-12-19T10:55:48.005Z,17.27
2022-12-19T10:58:36.185Z,17.40
2022-12-19T11:01:29.273Z,17.73
2022-12-19T11:04:33.178Z,17.33
2022-12-19T11:07:21.183Z,16.10
2022-12-19T11:11:43.164Z,16.80
2022-12-19T11:17:44.994Z,17.23
2022-12-19T11:22:07.693Z,16.67
2022-12-19T11:29:33.108Z,16.52
2022-12-19T11:29:35.141Z,17.90
2022-12-19T11:30:47.110Z,18.10
2022-12-19T11:33:11.298Z,17.73
2022-12-19T11:35:59.078Z,17.42
2022-12-19T11:38:53.987Z,17.08
2022-12-19T11:41:45.820Z,17.40
2022-12-19T11:44:46.629Z,17.67
2022-12-19T11:47:58.687Z,16.63
2022-12-19T11:50:58.859Z,18.08
2022-12-19T11:53:56.393Z,17.55
2022-12-19T11:56:41.907Z,18.55
2022-12-19T11:59:36.784Z,18.20
2022-12-19T12:02:40.752Z,16.85
2022-12-19T12:05:38.069Z,19.30
2022-12-19T12:13:36.176Z,17.27
2022-12-19T12:19:46.880Z,17.52
2022-12-19T12:29:31.010Z,18.65
2022-12-19T12:31:05.151Z,17.50
2022-12-19T12:31:22.908Z,18.67
2022-12-19T12:31:42.233Z,18.48
2022-12-19T12:31:50.062Z,16.75
2022-12-19T12:35:56.480Z,16.67
2022-12-19T12:39:24.345Z,16.58
2022-12-19T12:42:33.532Z,16.52
2022-12-19T12:45:40.155Z,16.55
2022-12-19T12:48:38.081Z,15.85
2022-12-19T12:51:25.548Z,17.77
2022-12-19T12:54:14.824Z,17.52
2022-12-19T12:57:01.488Z,17.80
2022-12-19T12:59:47.732Z,17.92
2022-12-19T13:02:33.327Z,18.73
2022-12-19T13:11:10.436Z,16.80
2022-12-19T13:13:58.067Z,19.05
2022-12-19T13:16:43.594Z,18.98
2022-12-19T13:19:34.389Z,18.83
2022-12-19T13:22:41.800Z,17.17
2022-12-19T13:25:27.111Z,18.30
2022-12-19T13:28:21.785Z,19.02
2022-12-19T13:31:19.771Z,17.90
2022-12-19T13:34:17.422Z,20.30
2022-12-19T13:39:49.937Z,18.98
2022-12-19T13:43:42.444Z,18.75
2022-12-19T13:46:42.566Z,18.60
2022-12-19T13:49:34.780Z,20.02
2022-12-19T13:52:20.746Z,19.90
2022-12-19T13:55:14.135Z,18.75
2022-12-19T13:58:04.369Z,17.98
2022-12-19T14:00:53.949Z,20.00
2022-12-19T14:03:42.559Z,19.02
2022-12-19T14:06:30.979Z,19.08
2022-12-19T14:11:25.255Z,19.20
2022-12-19T14:13:51.144Z,20.17
2022-12-19T14:16:15.187Z,18.83
2022-12-19T14:19:00.636Z,18.15
2022-12-19T14:22:05.442Z,19.52
2022-12-19T14:25:33.210Z,19.77
2022-12-19T14:28:17.737Z,20.20
2022-12-19T14:31:16.508Z,19.70
2022-12-19T14:34:35.466Z,21.40
2022-12-19T14:38:03.843Z,22.60
2022-12-19T14:41:00.200Z,22.17
2022-12-19T14:52:50.943Z,20.45
2022-12-19T14:54:38.004Z,22.00
2022-12-19T14:58:50.903Z,19.73
2022-12-19T15:01:10.315Z,22.20
2022-12-19T15:04:50.555Z,20.10
2022-12-19T15:07:14.931Z,23.30
2022-12-19T15:11:03.940Z,20.85
2022-12-19T15:14:47.270Z,21.25
2022-12-19T15:16:30.550Z,21.83
2022-12-19T15:19:15.739Z,23.67
2022-12-19T15:22:01.123Z,20.60
2022-12-19T15:24:46.621Z,22.15
2022-12-19T15:27:31.886Z,21.90
2022-12-19T15:30:20.576Z,22.92
2022-12-19T15:33:13.214Z,21.23
2022-12-19T15:35:58.501Z,21.92
2022-12-19T15:38:44.019Z,22.85
2022-12-19T15:41:29.571Z,24.73
2022-12-19T15:44:31.293Z,26.55
2022-12-19T15:47:25.701Z,22.73
2022-12-19T15:50:18.627Z,21.55
2022-12-19T15:53:32.780Z,20.98
2022-12-19T15:56:31.790Z,22.70
2022-12-19T15:59:22.962Z,20.98
2022-12-19T16:02:27.996Z,21.65
2022-12-19T16:05:24.951Z,20.75
2022-12-19T16:08:21.343Z,21.45
2022-12-19T16:11:06.600Z,22.73
2022-12-19T16:13:57.925Z,20.40
2022-12-19T16:16:46.530Z,19.33
2022-12-19T16:19:32.201Z,14.98
2022-12-19T16:22:23.711Z,21.50
2022-12-19T16:25:11.469Z,20.70
2022-12-19T16:27:58.686Z,21.05
2022-12-19T16:30:44.533Z,20.52
2022-12-19T16:33:31.151Z,20.73
2022-12-19T16:36:16.298Z,22.15
2022-12-19T16:39:01.558Z,20.80
2022-12-19T16:41:47.346Z,22.00
2022-12-19T16:44:34.751Z,24.55
2022-12-19T16:47:19.800Z,23.33
2022-12-19T16:50:17.483Z,22.38
2022-12-19T16:53:02.590Z,22.65
2022-12-19T16:55:49.774Z,22.35
2022-12-19T16:58:41.306Z,22.55
2022-12-19T17:01:28.912Z,21.38
2022-12-19T17:04:17.507Z,20.77
2022-12-19T17:07:10.882Z,21.97
2022-12-19T17:09:56.158Z,20.85
2022-12-19T17:12:42.580Z,21.75
2022-12-19T17:15:34.283Z,21.33
2022-12-19T17:18:31.467Z,22.42
2022-12-19T17:21:22.111Z,20.02
2022-12-19T17:24:12.893Z,21.65
2022-12-19T17:26:58.056Z,23.08
2022-12-19T17:29:43.947Z,24.08
2022-12-19T17:32:29.524Z,21.90
2022-12-19T17:35:27.364Z,22.50
2022-12-19T17:38:15.280Z,23.65
2022-12-19T17:41:00.540Z,21.55
2022-12-19T17:43:45.810Z,22.25
2022-12-19T17:46:31.339Z,21.20
2022-12-19T17:49:21.668Z,23.73
2022-12-19T17:52:13.504Z,22.40
2022-12-19T17:54:58.517Z,22.88
2022-12-19T17:57:44.344Z,22.58
2022-12-19T18:00:32.386Z,22.27
2022-12-19T18:03:25.815Z,22.42
2022-12-19T18:06:12.466Z,23.60
2022-12-19T18:08:57.773Z,21.80
2022-12-19T18:11:42.882Z,22.80
2022-12-19T18:14:28.391Z,22.33
2022-12-19T18:17:21.406Z,23.80
2022-12-19T18:20:31.921Z,22.05
2022-12-19T18:23:20.444Z,21.67
2022-12-19T18:26:05.945Z,22.65
2022-12-19T18:28:50.998Z,23.73
2022-12-19T18:31:36.812Z,23.15
2022-12-19T18:34:25.873Z,22.80
2022-12-19T18:37:17.278Z,15.73
2022-12-19T18:40:02.462Z,22.55
2022-12-19T18:42:48.784Z,24.33
2022-12-19T18:45:36.968Z,22.55
2022-12-19T18:48:32.875Z,22.98
2022-12-19T18:51:20.978Z,24.10
2022-12-19T18:54:15.286Z,23.42
2022-12-19T18:57:00.615Z,22.98
2022-12-19T18:59:47.650Z,23.58
2022-12-19T19:02:33.371Z,24.60
2022-12-19T19:05:22.162Z,21.80
2022-12-19T19:08:16.313Z,17.85
2022-12-19T19:11:03.554Z,20.88
2022-12-19T19:13:49.288Z,22.08
2022-12-19T19:16:36.962Z,22.90
2022-12-19T19:19:21.998Z,20.20
2022-12-19T19:22:07.233Z,20.20
2022-12-19T19:24:52.669Z,22.38
2022-12-19T19:27:39.829Z,20.65
2022-12-19T19:30:25.219Z,21.15
2022-12-19T19:33:19.960Z,22.70
2022-12-19T19:36:12.309Z,21.15
2022-12-19T19:38:59.025Z,20.95
2022-12-19T19:41:44.523Z,20.75
2022-12-19T19:44:30.079Z,20.80
2022-12-19T19:47:15.535Z,20.65
2022-12-19T19:50:00.793Z,20.70
2022-12-19T19:52:46.297Z,19.83
2022-12-19T19:55:31.644Z,19.25
2022-12-19T19:58:16.840Z,22.58
2022-12-19T20:01:08.141Z,20.63
2022-12-19T20:03:53.602Z,20.45
2022-12-19T20:06:38.765Z,20.13
2022-12-19T20:09:23.816Z,20.00
2022-12-19T20:12:09.351Z,19.88
2022-12-19T20:14:54.540Z,20.65
2022-12-19T20:17:40.624Z,20.30
2022-12-19T20:20:26.081Z,20.33
2022-12-19T20:23:11.537Z,19.90
2022-12-19T20:26:01.527Z,18.70
2022-12-19T20:31:35.205Z,18.25
2022-12-19T20:34:20.362Z,19.60
2022-12-19T20:37:05.827Z,20.00
2022-12-19T20:39:52.758Z,20.13
2022-12-19T20:42:38.344Z,21.98
2022-12-19T20:45:23.423Z,20.17
2022-12-19T20:48:09.244Z,21.35
2022-12-19T20:50:59.280Z,20.75
2022-12-19T20:53:45.014Z,19.60
2022-12-19T20:56:30.875Z,20.08
2022-12-19T20:59:16.573Z,19.10
2022-12-19T21:02:02.585Z,20.13
2022-12-19T21:04:48.324Z,17.75
2022-12-19T21:07:33.835Z,18.33
2022-12-19T21:10:18.885Z,16.88
2022-12-19T21:13:04.606Z,17.92
2022-12-19T21:15:54.505Z,18.63
2022-12-19T21:18:43.826Z,17.25
2022-12-19T21:21:29.470Z,17.50
2022-12-19T21:24:14.801Z,18.35
2022-12-19T21:27:00.134Z,17.02
2022-12-19T21:29:45.522Z,18.52
2022-12-19T21:32:30.701Z,18.33
2022-12-19T21:35:16.292Z,17.23
2022-12-19T21:38:01.790Z,16.98
2022-12-19T21:40:47.583Z,17.27
2022-12-19T21:43:34.364Z,17.98
2022-12-19T21:46:22.390Z,18.35
2022-12-19T21:49:08.670Z,19.40
2022-12-19T21:51:53.828Z,18.27
2022-12-19T21:54:39.067Z,17.77
2022-12-19T21:57:24.274Z,17.65
2022-12-19T22:00:12.936Z,17.52
2022-12-19T22:03:15.111Z,17.48
2022-12-19T22:06:01.353Z,17.40
2022-12-19T22:08:47.055Z,16.70
2022-12-19T22:11:32.204Z,17.25
2022-12-19T22:14:18.162Z,16.95
2022-12-19T22:17:03.514Z,16.17
2022-12-19T22:19:48.997Z,17.10
2022-12-19T22:22:34.365Z,18.90
2022-12-19T22:25:19.478Z,16.58
2022-12-19T22:28:05.455Z,16.35
2022-12-19T22:30:50.704Z,16.88
2022-12-19T22:33:35.872Z,17.15
2022-12-19T22:36:28.060Z,17.33
2022-12-19T22:39:17.780Z,17.50
2022-12-19T22:42:03.093Z,17.63
2022-12-19T22:44:48.255Z,17.92
2022-12-19T22:47:33.649Z,18.33
2022-12-19T22:50:19.671Z,17.67
2022-12-19T22:53:12.554Z,18.90
2022-12-19T22:56:06.126Z,17.58
2022-12-19T22:58:53.331Z,16.85
2022-12-19T23:01:44.245Z,17.13
2022-12-19T23:04:30.025Z,17.50
2022-12-19T23:07:16.225Z,17.55
2022-12-19T23:10:02.794Z,18.05
2022-12-19T23:12:50.628Z,18.13
2022-12-19T23:15:35.715Z,17.63
2022-12-19T23:18:20.823Z,17.02
2022-12-19T23:21:10.285Z,18.05
2022-12-19T23:23:56.341Z,16.60
2022-12-19T23:26:41.579Z,18.90
2022-12-19T23:29:26.763Z,17.55
2022-12-19T23:32:14.275Z,18.67
2022-12-19T23:34:59.811Z,17.45
2022-12-19T23:37:44.985Z,18.77
2022-12-19T23:40:30.231Z,16.90
2022-12-19T23:43:16.246Z,16.63
2022-12-19T23:46:12.181Z,14.75
2022-12-19T23:48:57.496Z,17.17
2022-12-19T23:51:43.078Z,17.50
2022-12-19T23:54:28.192Z,16.65
2022-12-19T23:57:13.498Z,17.60
2022-12-19T23:59:59.264Z,17.75
